sensor_id;sensor_type;location;lat;lon;timestamp;temperature;humidity
23568;DHT22;11962;50.838;4.430;2023-01-30T00:02:25;6.90;99.90
23568;DHT22;11962;50.838;4.430;2023-01-30T00:04:51;6.90;99.90
23568;DHT22;11962;50.838;4.430;2023-01-30T00:07:17;7.00;99.90
23568;DHT22;11962;50.838;4.430;2023-01-30T00:09:43;7.00;99.90
23568;DHT22;11962;50.838;4.430;2023-01-30T00:12:09;7.00;99.90
23568;DHT22;11962;50.838;4.430;2023-01-30T00:14:35;7.10;99.90
23568;DHT22;11962;50.838;4.430;2023-01-30T00:20:23;7.10;99.90
23568;DHT22;11962;50.838;4.430;2023-01-30T00:22:48;7.10;99.90
23568;DHT22;11962;50.838;4.430;2023-01-30T00:25:14;7.00;99.90
23568;DHT22;11962;50.838;4.430;2023-01-30T00:27:40;7.00;99.90
23568;DHT22;11962;50.838;4.430;2023-01-30T00:30:07;7.10;99.90
23568;DHT22;11962;50.838;4.430;2023-01-30T00:32:33;6.90;99.90
23568;DHT22;11962;50.838;4.430;2023-01-30T00:34:59;7.00;99.90
23568;DHT22;11962;50.838;4.430;2023-01-30T00:37:25;7.00;99.90
23568;DHT22;11962;50.838;4.430;2023-01-30T00:39:50;7.00;99.90
23568;DHT22;11962;50.838;4.430;2023-01-30T00:42:16;7.00;99.90
23568;DHT22;11962;50.838;4.430;2023-01-30T00:45:00;7.00;99.90
23568;DHT22;11962;50.838;4.430;2023-01-30T00:47:47;7.00;99.90
23568;DHT22;11962;50.838;4.430;2023-01-30T00:50:12;7.00;99.90
23568;DHT22;11962;50.838;4.430;2023-01-30T00:52:38;7.00;99.90
23568;DHT22;11962;50.838;4.430;2023-01-30T00:55:04;7.10;99.90
23568;DHT22;11962;50.838;4.430;2023-01-30T00:57:30;7.00;99.90
23568;DHT22;11962;50.838;4.430;2023-01-30T00:59:56;7.00;99.90
23568;DHT22;11962;50.838;4.430;2023-01-30T01:02:22;7.00;99.90
23568;DHT22;11962;50.838;4.430;2023-01-30T01:04:47;7.10;99.90
23568;DHT22;11962;50.838;4.430;2023-01-30T01:07:14;7.20;99.90
23568;DHT22;11962;50.838;4.430;2023-01-30T01:09:40;7.30;99.90
23568;DHT22;11962;50.838;4.430;2023-01-30T01:12:06;7.30;99.90
23568;DHT22;11962;50.838;4.430;2023-01-30T01:14:32;7.30;99.90
23568;DHT22;11962;50.838;4.430;2023-01-30T01:16:58;7.30;99.90
23568;DHT22;11962;50.838;4.430;2023-01-30T01:19:23;7.20;99.90
23568;DHT22;11962;50.838;4.430;2023-01-30T01:21:49;7.20;99.90
23568;DHT22;11962;50.838;4.430;2023-01-30T01:24:15;7.20;99.90
23568;DHT22;11962;50.838;4.430;2023-01-30T01:26:42;7.20;99.90
23568;DHT22;11962;50.838;4.430;2023-01-30T01:29:12;7.30;99.90
23568;DHT22;11962;50.838;4.430;2023-01-30T01:31:38;7.40;99.90
23568;DHT22;11962;50.838;4.430;2023-01-30T01:34:04;7.40;99.90
23568;DHT22;11962;50.838;4.430;2023-01-30T01:36:30;7.30;99.90
23568;DHT22;11962;50.838;4.430;2023-01-30T01:38:56;7.30;99.90
23568;DHT22;11962;50.838;4.430;2023-01-30T01:41:22;7.30;99.90
23568;DHT22;11962;50.838;4.430;2023-01-30T01:44:11;7.20;99.90
23568;DHT22;11962;50.838;4.430;2023-01-30T01:46:54;7.20;99.90
23568;DHT22;11962;50.838;4.430;2023-01-30T01:49:34;7.30;99.90
23568;DHT22;11962;50.838;4.430;2023-01-30T01:52:06;7.30;99.90
23568;DHT22;11962;50.838;4.430;2023-01-30T01:54:46;7.30;99.90
23568;DHT22;11962;50.838;4.430;2023-01-30T02:02:26;7.30;99.90
23568;DHT22;11962;50.838;4.430;2023-01-30T02:04:55;7.30;99.90
23568;DHT22;11962;50.838;4.430;2023-01-30T02:07:34;7.30;99.90
23568;DHT22;11962;50.838;4.430;2023-01-30T02:10:01;7.40;99.90
23568;DHT22;11962;50.838;4.430;2023-01-30T02:12:27;7.50;99.90
23568;DHT22;11962;50.838;4.430;2023-01-30T02:14:54;7.50;99.90
23568;DHT22;11962;50.838;4.430;2023-01-30T02:17:22;7.50;99.90
23568;DHT22;11962;50.838;4.430;2023-01-30T02:25:45;7.60;99.90
23568;DHT22;11962;50.838;4.430;2023-01-30T02:28:32;7.60;99.90
23568;DHT22;11962;50.838;4.430;2023-01-30T02:34:41;7.60;99.90
23568;DHT22;11962;50.838;4.430;2023-01-30T02:46:11;7.60;99.90
23568;DHT22;11962;50.838;4.430;2023-01-30T02:51:17;7.60;99.90
23568;DHT22;11962;50.838;4.430;2023-01-30T02:53:46;7.70;99.90
23568;DHT22;11962;50.838;4.430;2023-01-30T02:56:12;7.70;99.90
23568;DHT22;11962;50.838;4.430;2023-01-30T02:58:43;7.70;99.90
23568;DHT22;11962;50.838;4.430;2023-01-30T03:07:11;7.70;99.90
23568;DHT22;11962;50.838;4.430;2023-01-30T03:15:26;7.80;99.90
23568;DHT22;11962;50.838;4.430;2023-01-30T03:17:54;7.80;99.90
23568;DHT22;11962;50.838;4.430;2023-01-30T03:20:20;7.80;99.90
23568;DHT22;11962;50.838;4.430;2023-01-30T03:22:46;7.80;99.90
23568;DHT22;11962;50.838;4.430;2023-01-30T03:25:17;7.70;99.90
23568;DHT22;11962;50.838;4.430;2023-01-30T03:27:44;7.80;99.90
23568;DHT22;11962;50.838;4.430;2023-01-30T03:30:10;7.80;99.90
23568;DHT22;11962;50.838;4.430;2023-01-30T03:32:36;7.80;99.90
23568;DHT22;11962;50.838;4.430;2023-01-30T03:35:02;7.80;99.90
23568;DHT22;11962;50.838;4.430;2023-01-30T03:37:28;7.90;99.90
23568;DHT22;11962;50.838;4.430;2023-01-30T03:39:54;7.90;99.90
23568;DHT22;11962;50.838;4.430;2023-01-30T03:42:20;7.90;99.90
23568;DHT22;11962;50.838;4.430;2023-01-30T03:44:45;7.90;99.90
23568;DHT22;11962;50.838;4.430;2023-01-30T03:47:11;8.00;99.90
23568;DHT22;11962;50.838;4.430;2023-01-30T03:49:37;8.00;99.90
23568;DHT22;11962;50.838;4.430;2023-01-30T03:52:03;7.90;99.90
23568;DHT22;11962;50.838;4.430;2023-01-30T03:54:28;7.90;99.90
23568;DHT22;11962;50.838;4.430;2023-01-30T03:56:54;7.90;99.90
23568;DHT22;11962;50.838;4.430;2023-01-30T03:59:20;7.90;99.90
23568;DHT22;11962;50.838;4.430;2023-01-30T04:01:45;7.90;99.90
23568;DHT22;11962;50.838;4.430;2023-01-30T04:04:11;8.00;99.90
23568;DHT22;11962;50.838;4.430;2023-01-30T04:06:37;8.00;99.90
23568;DHT22;11962;50.838;4.430;2023-01-30T04:09:02;8.00;99.90
23568;DHT22;11962;50.838;4.430;2023-01-30T04:11:28;8.10;99.90
23568;DHT22;11962;50.838;4.430;2023-01-30T04:13:54;8.00;99.90
23568;DHT22;11962;50.838;4.430;2023-01-30T04:16:24;8.00;99.90
23568;DHT22;11962;50.838;4.430;2023-01-30T04:18:50;7.90;99.90
23568;DHT22;11962;50.838;4.430;2023-01-30T04:21:16;7.90;99.90
23568;DHT22;11962;50.838;4.430;2023-01-30T04:23:42;7.90;99.90
23568;DHT22;11962;50.838;4.430;2023-01-30T04:26:09;7.90;99.90
23568;DHT22;11962;50.838;4.430;2023-01-30T04:28:35;7.90;99.90
23568;DHT22;11962;50.838;4.430;2023-01-30T04:31:01;7.90;99.90
23568;DHT22;11962;50.838;4.430;2023-01-30T04:33:27;7.80;99.90
23568;DHT22;11962;50.838;4.430;2023-01-30T04:35:58;7.90;99.90
23568;DHT22;11962;50.838;4.430;2023-01-30T04:38:25;7.80;99.90
23568;DHT22;11962;50.838;4.430;2023-01-30T04:40:53;7.90;99.90
23568;DHT22;11962;50.838;4.430;2023-01-30T04:43:19;7.90;99.90
23568;DHT22;11962;50.838;4.430;2023-01-30T04:45:47;7.80;99.90
23568;DHT22;11962;50.838;4.430;2023-01-30T04:48:14;7.80;99.90
23568;DHT22;11962;50.838;4.430;2023-01-30T04:50:41;7.80;99.90
23568;DHT22;11962;50.838;4.430;2023-01-30T04:53:08;7.80;99.90
23568;DHT22;11962;50.838;4.430;2023-01-30T04:55:34;7.80;99.90
23568;DHT22;11962;50.838;4.430;2023-01-30T04:58:00;7.80;99.90
23568;DHT22;11962;50.838;4.430;2023-01-30T05:00:26;7.80;99.90
23568;DHT22;11962;50.838;4.430;2023-01-30T05:02:52;7.80;99.90
23568;DHT22;11962;50.838;4.430;2023-01-30T05:05:20;7.80;99.90
23568;DHT22;11962;50.838;4.430;2023-01-30T05:07:47;7.90;99.90
23568;DHT22;11962;50.838;4.430;2023-01-30T05:10:13;7.90;99.90
23568;DHT22;11962;50.838;4.430;2023-01-30T05:12:38;7.80;99.90
23568;DHT22;11962;50.838;4.430;2023-01-30T05:15:04;7.90;99.90
23568;DHT22;11962;50.838;4.430;2023-01-30T05:17:31;7.90;99.90
23568;DHT22;11962;50.838;4.430;2023-01-30T05:19:57;8.00;99.90
23568;DHT22;11962;50.838;4.430;2023-01-30T05:22:23;8.00;99.90
23568;DHT22;11962;50.838;4.430;2023-01-30T05:24:49;8.00;99.90
23568;DHT22;11962;50.838;4.430;2023-01-30T05:27:14;7.90;99.90
23568;DHT22;11962;50.838;4.430;2023-01-30T05:29:40;8.00;99.90
23568;DHT22;11962;50.838;4.430;2023-01-30T05:32:06;8.00;99.90
23568;DHT22;11962;50.838;4.430;2023-01-30T05:34:31;8.00;99.90
23568;DHT22;11962;50.838;4.430;2023-01-30T05:36:57;8.10;99.90
23568;DHT22;11962;50.838;4.430;2023-01-30T05:39:23;8.10;99.90
23568;DHT22;11962;50.838;4.430;2023-01-30T05:41:49;8.20;99.90
23568;DHT22;11962;50.838;4.430;2023-01-30T05:44:14;8.20;99.90
23568;DHT22;11962;50.838;4.430;2023-01-30T05:46:40;8.20;99.90
23568;DHT22;11962;50.838;4.430;2023-01-30T05:49:06;8.20;99.90
23568;DHT22;11962;50.838;4.430;2023-01-30T05:51:32;8.20;99.90
23568;DHT22;11962;50.838;4.430;2023-01-30T05:53:58;8.20;99.90
23568;DHT22;11962;50.838;4.430;2023-01-30T05:56:24;8.30;99.90
23568;DHT22;11962;50.838;4.430;2023-01-30T05:58:51;8.40;99.90
23568;DHT22;11962;50.838;4.430;2023-01-30T06:01:18;8.40;99.90
23568;DHT22;11962;50.838;4.430;2023-01-30T06:03:44;8.50;99.90
23568;DHT22;11962;50.838;4.430;2023-01-30T06:06:10;8.50;99.90
23568;DHT22;11962;50.838;4.430;2023-01-30T06:08:37;8.60;99.90
23568;DHT22;11962;50.838;4.430;2023-01-30T06:11:14;8.60;99.90
23568;DHT22;11962;50.838;4.430;2023-01-30T06:13:40;8.60;99.90
23568;DHT22;11962;50.838;4.430;2023-01-30T06:16:08;8.70;99.90
23568;DHT22;11962;50.838;4.430;2023-01-30T06:18:34;8.80;99.90
23568;DHT22;11962;50.838;4.430;2023-01-30T06:21:00;8.70;99.90
23568;DHT22;11962;50.838;4.430;2023-01-30T06:23:26;8.70;99.90
23568;DHT22;11962;50.838;4.430;2023-01-30T06:25:53;8.70;99.90
23568;DHT22;11962;50.838;4.430;2023-01-30T06:28:25;8.80;99.90
23568;DHT22;11962;50.838;4.430;2023-01-30T06:31:00;8.70;99.90
23568;DHT22;11962;50.838;4.430;2023-01-30T06:33:26;8.80;99.90
23568;DHT22;11962;50.838;4.430;2023-01-30T06:35:51;8.80;99.90
23568;DHT22;11962;50.838;4.430;2023-01-30T06:38:18;8.90;99.90
23568;DHT22;11962;50.838;4.430;2023-01-30T06:40:47;8.90;99.90
23568;DHT22;11962;50.838;4.430;2023-01-30T06:43:13;8.90;99.90
23568;DHT22;11962;50.838;4.430;2023-01-30T06:45:39;8.90;99.90
23568;DHT22;11962;50.838;4.430;2023-01-30T06:48:05;8.90;99.90
23568;DHT22;11962;50.838;4.430;2023-01-30T06:50:31;8.80;99.90
23568;DHT22;11962;50.838;4.430;2023-01-30T06:53:04;8.90;99.90
23568;DHT22;11962;50.838;4.430;2023-01-30T06:55:32;8.90;99.90
23568;DHT22;11962;50.838;4.430;2023-01-30T06:58:11;9.00;99.90
23568;DHT22;11962;50.838;4.430;2023-01-30T07:00:39;9.00;99.90
23568;DHT22;11962;50.838;4.430;2023-01-30T07:03:10;9.00;99.90
23568;DHT22;11962;50.838;4.430;2023-01-30T07:05:40;9.00;99.90
23568;DHT22;11962;50.838;4.430;2023-01-30T07:08:43;8.90;99.90
23568;DHT22;11962;50.838;4.430;2023-01-30T07:11:09;9.00;99.90
23568;DHT22;11962;50.838;4.430;2023-01-30T07:13:35;9.10;99.90
23568;DHT22;11962;50.838;4.430;2023-01-30T07:16:01;9.20;99.90
23568;DHT22;11962;50.838;4.430;2023-01-30T07:18:27;9.20;99.90
23568;DHT22;11962;50.838;4.430;2023-01-30T07:20:52;9.10;99.90
23568;DHT22;11962;50.838;4.430;2023-01-30T07:23:18;9.00;99.90
23568;DHT22;11962;50.838;4.430;2023-01-30T07:25:44;9.00;99.90
23568;DHT22;11962;50.838;4.430;2023-01-30T07:28:10;9.00;99.90
23568;DHT22;11962;50.838;4.430;2023-01-30T07:30:36;9.00;99.90
23568;DHT22;11962;50.838;4.430;2023-01-30T07:33:03;9.00;99.90
23568;DHT22;11962;50.838;4.430;2023-01-30T07:35:32;9.10;99.90
23568;DHT22;11962;50.838;4.430;2023-01-30T07:37:58;9.10;99.90
23568;DHT22;11962;50.838;4.430;2023-01-30T07:40:24;9.10;99.90
23568;DHT22;11962;50.838;4.430;2023-01-30T07:43:09;9.20;99.90
23568;DHT22;11962;50.838;4.430;2023-01-30T07:45:55;9.30;99.90
23568;DHT22;11962;50.838;4.430;2023-01-30T07:48:21;9.30;99.90
23568;DHT22;11962;50.838;4.430;2023-01-30T07:50:47;9.30;99.90
23568;DHT22;11962;50.838;4.430;2023-01-30T07:53:14;9.40;99.90
23568;DHT22;11962;50.838;4.430;2023-01-30T07:55:40;9.40;99.90
23568;DHT22;11962;50.838;4.430;2023-01-30T07:58:06;9.40;99.90
23568;DHT22;11962;50.838;4.430;2023-01-30T08:00:32;9.50;99.90
23568;DHT22;11962;50.838;4.430;2023-01-30T08:02:58;9.50;99.90
23568;DHT22;11962;50.838;4.430;2023-01-30T08:05:24;9.50;99.90
23568;DHT22;11962;50.838;4.430;2023-01-30T08:07:50;9.60;99.90
23568;DHT22;11962;50.838;4.430;2023-01-30T08:10:17;9.60;99.90
23568;DHT22;11962;50.838;4.430;2023-01-30T08:12:43;9.60;99.90
23568;DHT22;11962;50.838;4.430;2023-01-30T08:15:09;9.70;99.90
23568;DHT22;11962;50.838;4.430;2023-01-30T08:17:35;9.70;99.90
23568;DHT22;11962;50.838;4.430;2023-01-30T08:20:01;9.70;99.90
23568;DHT22;11962;50.838;4.430;2023-01-30T08:22:28;9.80;99.90
23568;DHT22;11962;50.838;4.430;2023-01-30T08:24:53;9.90;99.90
23568;DHT22;11962;50.838;4.430;2023-01-30T08:27:19;9.80;99.90
23568;DHT22;11962;50.838;4.430;2023-01-30T08:29:45;9.80;99.90
23568;DHT22;11962;50.838;4.430;2023-01-30T08:32:10;9.80;99.90
23568;DHT22;11962;50.838;4.430;2023-01-30T08:34:36;9.80;99.90
23568;DHT22;11962;50.838;4.430;2023-01-30T08:37:02;9.90;99.90
23568;DHT22;11962;50.838;4.430;2023-01-30T08:39:28;10.00;99.90
23568;DHT22;11962;50.838;4.430;2023-01-30T08:41:54;9.90;99.90
23568;DHT22;11962;50.838;4.430;2023-01-30T08:44:19;9.80;99.90
23568;DHT22;11962;50.838;4.430;2023-01-30T08:46:45;9.70;99.90
23568;DHT22;11962;50.838;4.430;2023-01-30T08:49:11;9.70;99.90
23568;DHT22;11962;50.838;4.430;2023-01-30T08:51:37;9.80;99.90
23568;DHT22;11962;50.838;4.430;2023-01-30T08:54:03;9.90;99.90
23568;DHT22;11962;50.838;4.430;2023-01-30T08:56:32;9.90;99.90
23568;DHT22;11962;50.838;4.430;2023-01-30T08:58:57;9.90;99.90
23568;DHT22;11962;50.838;4.430;2023-01-30T09:01:23;9.90;99.90
23568;DHT22;11962;50.838;4.430;2023-01-30T09:03:49;9.90;99.90
23568;DHT22;11962;50.838;4.430;2023-01-30T09:06:14;9.80;99.90
23568;DHT22;11962;50.838;4.430;2023-01-30T09:08:40;9.90;99.90
23568;DHT22;11962;50.838;4.430;2023-01-30T09:11:06;9.80;99.90
23568;DHT22;11962;50.838;4.430;2023-01-30T09:13:33;9.80;99.90
23568;DHT22;11962;50.838;4.430;2023-01-30T09:15:59;9.90;99.90
23568;DHT22;11962;50.838;4.430;2023-01-30T09:18:25;10.00;99.90
23568;DHT22;11962;50.838;4.430;2023-01-30T09:20:50;10.00;99.90
23568;DHT22;11962;50.838;4.430;2023-01-30T09:23:17;10.10;99.90
23568;DHT22;11962;50.838;4.430;2023-01-30T09:25:46;10.10;99.90
23568;DHT22;11962;50.838;4.430;2023-01-30T09:28:12;10.20;99.90
23568;DHT22;11962;50.838;4.430;2023-01-30T09:30:37;10.50;99.90
23568;DHT22;11962;50.838;4.430;2023-01-30T09:33:03;11.10;99.90
23568;DHT22;11962;50.838;4.430;2023-01-30T09:35:29;12.70;99.90
23568;DHT22;11962;50.838;4.430;2023-01-30T09:37:55;15.10;99.90
23568;DHT22;11962;50.838;4.430;2023-01-30T09:40:24;17.10;99.90
23568;DHT22;11962;50.838;4.430;2023-01-30T09:45:41;19.70;99.90
23568;DHT22;11962;50.838;4.430;2023-01-30T09:48:30;20.80;96.40
23568;DHT22;11962;50.838;4.430;2023-01-30T09:55:48;23.30;82.80
23568;DHT22;11962;50.838;4.430;2023-01-30T09:58:19;23.80;78.10
23568;DHT22;11962;50.838;4.430;2023-01-30T10:00:47;23.90;74.20
23568;DHT22;11962;50.838;4.430;2023-01-30T10:03:19;24.00;71.70
23568;DHT22;11962;50.838;4.430;2023-01-30T10:11:50;24.90;65.30
23568;DHT22;11962;50.838;4.430;2023-01-30T10:25:44;23.30;64.90
23568;DHT22;11962;50.838;4.430;2023-01-30T10:28:27;23.00;63.90
23568;DHT22;11962;50.838;4.430;2023-01-30T10:31:03;23.70;63.70
23568;DHT22;11962;50.838;4.430;2023-01-30T10:33:34;23.30;62.60
23568;DHT22;11962;50.838;4.430;2023-01-30T10:36:09;22.90;63.20
23568;DHT22;11962;50.838;4.430;2023-01-30T10:41:29;22.60;64.10
23568;DHT22;11962;50.838;4.430;2023-01-30T10:44:06;22.80;63.80
23568;DHT22;11962;50.838;4.430;2023-01-30T10:50:44;22.50;64.30
23568;DHT22;11962;50.838;4.430;2023-01-30T10:57:57;21.50;65.80
23568;DHT22;11962;50.838;4.430;2023-01-30T11:00:37;21.00;65.90
23568;DHT22;11962;50.838;4.430;2023-01-30T11:05:44;20.10;67.10
23568;DHT22;11962;50.838;4.430;2023-01-30T11:10:46;18.50;71.10
23568;DHT22;11962;50.838;4.430;2023-01-30T11:13:22;17.40;73.20
23568;DHT22;11962;50.838;4.430;2023-01-30T11:15:53;16.50;76.20
23568;DHT22;11962;50.838;4.430;2023-01-30T11:18:22;16.30;78.30
23568;DHT22;11962;50.838;4.430;2023-01-30T11:21:07;16.40;77.90
23568;DHT22;11962;50.838;4.430;2023-01-30T11:23:42;16.10;79.30
23568;DHT22;11962;50.838;4.430;2023-01-30T11:26:18;15.60;80.90
23568;DHT22;11962;50.838;4.430;2023-01-30T11:28:46;15.10;81.40
23568;DHT22;11962;50.838;4.430;2023-01-30T11:31:26;14.70;83.30
23568;DHT22;11962;50.838;4.430;2023-01-30T11:36:31;14.70;85.40
23568;DHT22;11962;50.838;4.430;2023-01-30T11:41:24;14.90;84.70
23568;DHT22;11962;50.838;4.430;2023-01-30T11:43:50;14.90;84.00
23568;DHT22;11962;50.838;4.430;2023-01-30T11:46:24;14.70;85.20
23568;DHT22;11962;50.838;4.430;2023-01-30T11:48:58;14.50;86.00
23568;DHT22;11962;50.838;4.430;2023-01-30T11:51:25;14.20;86.90
23568;DHT22;11962;50.838;4.430;2023-01-30T11:54:01;14.00;87.80
23568;DHT22;11962;50.838;4.430;2023-01-30T11:56:38;13.90;89.10
23568;DHT22;11962;50.838;4.430;2023-01-30T12:01:38;13.90;90.00
23568;DHT22;11962;50.838;4.430;2023-01-30T12:04:06;13.80;90.20
23568;DHT22;11962;50.838;4.430;2023-01-30T12:06:36;13.80;90.30
23568;DHT22;11962;50.838;4.430;2023-01-30T12:09:03;13.70;90.10
23568;DHT22;11962;50.838;4.430;2023-01-30T12:11:45;13.60;90.60
23568;DHT22;11962;50.838;4.430;2023-01-30T12:19:44;13.20;91.10
23568;DHT22;11962;50.838;4.430;2023-01-30T12:22:25;13.10;91.30
23568;DHT22;11962;50.838;4.430;2023-01-30T12:24:57;13.00;91.50
23568;DHT22;11962;50.838;4.430;2023-01-30T12:30:34;12.80;92.00
23568;DHT22;11962;50.838;4.430;2023-01-30T12:33:03;12.80;92.20
23568;DHT22;11962;50.838;4.430;2023-01-30T12:35:33;12.70;92.50
23568;DHT22;11962;50.838;4.430;2023-01-30T12:38:03;12.70;92.80
23568;DHT22;11962;50.838;4.430;2023-01-30T12:46:17;12.70;93.10
23568;DHT22;11962;50.838;4.430;2023-01-30T12:51:49;12.70;93.40
23568;DHT22;11962;50.838;4.430;2023-01-30T12:54:25;12.70;93.60
23568;DHT22;11962;50.838;4.430;2023-01-30T12:59:58;12.30;93.90
23568;DHT22;11962;50.838;4.430;2023-01-30T13:08:57;12.20;94.70
23568;DHT22;11962;50.838;4.430;2023-01-30T13:19:52;12.20;95.70
23568;DHT22;11962;50.838;4.430;2023-01-30T13:22:47;12.20;95.50
23568;DHT22;11962;50.838;4.430;2023-01-30T13:28:02;12.00;95.60
23568;DHT22;11962;50.838;4.430;2023-01-30T13:30:30;12.00;95.80
23568;DHT22;11962;50.838;4.430;2023-01-30T13:33:19;12.00;95.70
23568;DHT22;11962;50.838;4.430;2023-01-30T13:35:51;12.00;95.80
23568;DHT22;11962;50.838;4.430;2023-01-30T13:38:22;12.10;95.90
23568;DHT22;11962;50.838;4.430;2023-01-30T13:40:52;12.30;95.90
23568;DHT22;11962;50.838;4.430;2023-01-30T13:43:37;12.30;95.90
23568;DHT22;11962;50.838;4.430;2023-01-30T13:46:09;12.30;96.10
23568;DHT22;11962;50.838;4.430;2023-01-30T13:51:47;12.30;95.80
23568;DHT22;11962;50.838;4.430;2023-01-30T13:56:51;12.30;95.80
23568;DHT22;11962;50.838;4.430;2023-01-30T14:02:23;12.40;95.80
23568;DHT22;11962;50.838;4.430;2023-01-30T14:04:58;12.40;95.80
23568;DHT22;11962;50.838;4.430;2023-01-30T14:07:32;12.30;95.50
23568;DHT22;11962;50.838;4.430;2023-01-30T14:15:21;12.00;96.20
23568;DHT22;11962;50.838;4.430;2023-01-30T14:20:44;11.80;96.60
23568;DHT22;11962;50.838;4.430;2023-01-30T14:23:33;11.70;97.10
23568;DHT22;11962;50.838;4.430;2023-01-30T14:25:59;11.70;96.50
23568;DHT22;11962;50.838;4.430;2023-01-30T14:30:55;11.70;96.80
23568;DHT22;11962;50.838;4.430;2023-01-30T14:38:41;11.60;97.40
23568;DHT22;11962;50.838;4.430;2023-01-30T14:41:25;11.60;97.60
23568;DHT22;11962;50.838;4.430;2023-01-30T14:43:51;11.60;97.90
23568;DHT22;11962;50.838;4.430;2023-01-30T14:48:50;11.80;98.00
23568;DHT22;11962;50.838;4.430;2023-01-30T14:51:42;11.90;98.00
23568;DHT22;11962;50.838;4.430;2023-01-30T14:54:17;11.90;97.70
23568;DHT22;11962;50.838;4.430;2023-01-30T15:04:42;11.60;97.80
23568;DHT22;11962;50.838;4.430;2023-01-30T15:07:19;11.60;97.80
23568;DHT22;11962;50.838;4.430;2023-01-30T15:10:16;11.60;98.00
23568;DHT22;11962;50.838;4.430;2023-01-30T15:21:19;11.50;98.50
23568;DHT22;11962;50.838;4.430;2023-01-30T15:32:27;11.30;99.40
23568;DHT22;11962;50.838;4.430;2023-01-30T15:34:56;11.30;99.50
23568;DHT22;11962;50.838;4.430;2023-01-30T15:37:56;11.30;99.60
23568;DHT22;11962;50.838;4.430;2023-01-30T15:40:28;11.30;99.80
23568;DHT22;11962;50.838;4.430;2023-01-30T15:50:54;11.00;99.90
23568;DHT22;11962;50.838;4.430;2023-01-30T15:53:39;11.00;99.90
23568;DHT22;11962;50.838;4.430;2023-01-30T15:56:25;11.00;99.90
23568;DHT22;11962;50.838;4.430;2023-01-30T15:59:01;10.90;99.60
23568;DHT22;11962;50.838;4.430;2023-01-30T16:01:27;10.80;99.50
23568;DHT22;11962;50.838;4.430;2023-01-30T16:03:53;10.70;99.70
23568;DHT22;11962;50.838;4.430;2023-01-30T16:08:56;10.70;99.90
23568;DHT22;11962;50.838;4.430;2023-01-30T16:11:41;10.60;99.90
23568;DHT22;11962;50.838;4.430;2023-01-30T16:14:15;10.60;99.90
23568;DHT22;11962;50.838;4.430;2023-01-30T16:17:04;10.60;99.90
23568;DHT22;11962;50.838;4.430;2023-01-30T16:19:36;10.50;99.90
23568;DHT22;11962;50.838;4.430;2023-01-30T16:22:17;10.50;99.90
23568;DHT22;11962;50.838;4.430;2023-01-30T16:24:51;10.50;99.90
23568;DHT22;11962;50.838;4.430;2023-01-30T16:27:29;10.60;99.90
23568;DHT22;11962;50.838;4.430;2023-01-30T16:30:21;10.60;99.90
23568;DHT22;11962;50.838;4.430;2023-01-30T16:32:47;10.50;99.90
23568;DHT22;11962;50.838;4.430;2023-01-30T16:37:48;10.50;99.90
23568;DHT22;11962;50.838;4.430;2023-01-30T16:40:25;10.60;99.90
23568;DHT22;11962;50.838;4.430;2023-01-30T16:50:45;10.50;99.90
23568;DHT22;11962;50.838;4.430;2023-01-30T16:53:13;10.50;99.90
23568;DHT22;11962;50.838;4.430;2023-01-30T16:56:09;10.50;99.90
23568;DHT22;11962;50.838;4.430;2023-01-30T16:58:39;10.50;99.90
23568;DHT22;11962;50.838;4.430;2023-01-30T17:01:08;10.50;99.90
23568;DHT22;11962;50.838;4.430;2023-01-30T17:03:42;10.50;99.90
23568;DHT22;11962;50.838;4.430;2023-01-30T17:06:37;10.40;99.90
23568;DHT22;11962;50.838;4.430;2023-01-30T17:09:30;10.30;99.90
23568;DHT22;11962;50.838;4.430;2023-01-30T17:11:52;10.30;99.90
23568;DHT22;11962;50.838;4.430;2023-01-30T17:19:28;10.40;99.90
23568;DHT22;11962;50.838;4.430;2023-01-30T17:21:54;10.40;99.90
23568;DHT22;11962;50.838;4.430;2023-01-30T17:24:22;10.40;99.90
23568;DHT22;11962;50.838;4.430;2023-01-30T17:26:54;10.30;99.90
23568;DHT22;11962;50.838;4.430;2023-01-30T17:29:38;10.30;99.90
23568;DHT22;11962;50.838;4.430;2023-01-30T17:32:10;10.30;99.90
23568;DHT22;11962;50.838;4.430;2023-01-30T17:34:36;10.40;99.90
23568;DHT22;11962;50.838;4.430;2023-01-30T17:37:19;10.30;99.90
23568;DHT22;11962;50.838;4.430;2023-01-30T17:39:47;10.30;99.90
23568;DHT22;11962;50.838;4.430;2023-01-30T17:42:14;10.30;99.90
23568;DHT22;11962;50.838;4.430;2023-01-30T17:44:40;10.20;99.90
23568;DHT22;11962;50.838;4.430;2023-01-30T17:47:09;10.10;99.90
23568;DHT22;11962;50.838;4.430;2023-01-30T17:49:35;10.10;99.90
23568;DHT22;11962;50.838;4.430;2023-01-30T17:52:01;10.10;99.90
23568;DHT22;11962;50.838;4.430;2023-01-30T17:54:26;10.10;99.90
23568;DHT22;11962;50.838;4.430;2023-01-30T17:57:00;10.10;99.90
23568;DHT22;11962;50.838;4.430;2023-01-30T17:59:26;10.10;99.90
23568;DHT22;11962;50.838;4.430;2023-01-30T18:01:52;10.10;99.90
23568;DHT22;11962;50.838;4.430;2023-01-30T18:04:19;10.00;99.90
23568;DHT22;11962;50.838;4.430;2023-01-30T18:06:48;10.00;99.90
23568;DHT22;11962;50.838;4.430;2023-01-30T18:09:17;10.00;99.90
23568;DHT22;11962;50.838;4.430;2023-01-30T18:11:44;10.00;99.90
23568;DHT22;11962;50.838;4.430;2023-01-30T18:17:26;9.90;99.90
23568;DHT22;11962;50.838;4.430;2023-01-30T18:19:53;9.80;99.90
23568;DHT22;11962;50.838;4.430;2023-01-30T18:22:20;9.80;99.90
23568;DHT22;11962;50.838;4.430;2023-01-30T18:24:46;9.70;99.90
23568;DHT22;11962;50.838;4.430;2023-01-30T18:27:12;9.70;99.90
23568;DHT22;11962;50.838;4.430;2023-01-30T18:29:37;9.60;99.90
23568;DHT22;11962;50.838;4.430;2023-01-30T18:32:03;9.60;99.90
23568;DHT22;11962;50.838;4.430;2023-01-30T18:34:31;9.60;99.90
23568;DHT22;11962;50.838;4.430;2023-01-30T18:36:57;9.60;99.90
23568;DHT22;11962;50.838;4.430;2023-01-30T18:39:23;9.60;99.90
23568;DHT22;11962;50.838;4.430;2023-01-30T18:41:49;9.50;99.90
23568;DHT22;11962;50.838;4.430;2023-01-30T18:44:15;9.50;99.90
23568;DHT22;11962;50.838;4.430;2023-01-30T18:46:41;9.40;99.90
23568;DHT22;11962;50.838;4.430;2023-01-30T18:49:07;9.40;99.90
23568;DHT22;11962;50.838;4.430;2023-01-30T18:51:33;9.40;99.90
23568;DHT22;11962;50.838;4.430;2023-01-30T18:54:00;9.30;99.90
23568;DHT22;11962;50.838;4.430;2023-01-30T18:56:30;9.30;99.90
23568;DHT22;11962;50.838;4.430;2023-01-30T18:58:58;9.40;99.90
23568;DHT22;11962;50.838;4.430;2023-01-30T19:01:28;9.40;99.90
23568;DHT22;11962;50.838;4.430;2023-01-30T19:03:55;9.40;99.90
23568;DHT22;11962;50.838;4.430;2023-01-30T19:06:21;9.40;99.90
23568;DHT22;11962;50.838;4.430;2023-01-30T19:08:47;9.40;99.90
23568;DHT22;11962;50.838;4.430;2023-01-30T19:11:15;9.40;99.90
23568;DHT22;11962;50.838;4.430;2023-01-30T19:14:01;9.40;99.90
23568;DHT22;11962;50.838;4.430;2023-01-30T19:16:28;9.30;99.90
23568;DHT22;11962;50.838;4.430;2023-01-30T19:18:55;9.30;99.90
23568;DHT22;11962;50.838;4.430;2023-01-30T19:21:22;9.40;99.90
23568;DHT22;11962;50.838;4.430;2023-01-30T19:23:48;9.40;99.90
23568;DHT22;11962;50.838;4.430;2023-01-30T19:26:15;9.40;99.90